sensor_id;sensor_type;location;lat;lon;timestamp;pressure;altitude;pressure_sealevel;temperature;humidity
39681;BME280;26327;42.550;23.120;2023-12-20T00:01:01;93125.19;;;-0.01;84.95
39681;BME280;26327;42.550;23.120;2023-12-20T00:03:26;93057.94;;;-0.72;86.22
39681;BME280;26327;42.550;23.120;2023-12-20T00:05:51;93074.59;;;-0.55;85.65
39681;BME280;26327;42.550;23.120;2023-12-20T00:08:17;93061.56;;;-0.63;85.44
39681;BME280;26327;42.550;23.120;2023-12-20T00:10:45;93106.69;;;-0.87;87.33
39681;BME280;26327;42.550;23.120;2023-12-20T00:13:11;93051.81;;;-0.93;86.96
39681;BME280;26327;42.550;23.120;2023-12-20T00:15:36;93117.13;;;-1.16;89.96
39681;BME280;26327;42.550;23.120;2023-12-20T00:18:02;93042.88;;;-1.73;92.09
39681;BME280;26327;42.550;23.120;2023-12-20T00:20:28;93059.25;;;-1.52;92.10
39681;BME280;26327;42.550;23.120;2023-12-20T00:22:57;93059.47;;;-1.68;92.67
39681;BME280;26327;42.550;23.120;2023-12-20T00:25:23;93096.97;;;-1.44;94.54
39681;BME280;26327;42.550;23.120;2023-12-20T00:27:49;93101.75;;;-1.27;93.37
39681;BME280;26327;42.550;23.120;2023-12-20T00:30:14;93089.31;;;-1.32;93.97
39681;BME280;26327;42.550;23.120;2023-12-20T00:32:39;93043.69;;;-1.60;94.54
39681;BME280;26327;42.550;23.120;2023-12-20T00:35:14;93115.22;;;-1.38;96.07
39681;BME280;26327;42.550;23.120;2023-12-20T00:37:39;93108.78;;;-1.43;98.45
39681;BME280;26327;42.550;23.120;2023-12-20T00:40:05;93029.34;;;-1.74;97.92
39681;BME280;26327;42.550;23.120;2023-12-20T00:42:31;93083.91;;;-1.27;98.61
39681;BME280;26327;42.550;23.120;2023-12-20T00:44:56;93057.69;;;-1.16;97.50
39681;BME280;26327;42.550;23.120;2023-12-20T00:47:21;93019.59;;;-1.43;97.32
39681;BME280;26327;42.550;23.120;2023-12-20T00:49:47;93074.38;;;-1.12;97.28
39681;BME280;26327;42.550;23.120;2023-12-20T00:52:12;93071.59;;;-1.33;97.74
39681;BME280;26327;42.550;23.120;2023-12-20T00:54:38;93083.63;;;-1.35;97.99
39681;BME280;26327;42.550;23.120;2023-12-20T00:57:04;93089.41;;;-1.20;97.33
39681;BME280;26327;42.550;23.120;2023-12-20T00:59:29;93070.25;;;-1.26;95.95
39681;BME280;26327;42.550;23.120;2023-12-20T01:01:54;93043.34;;;-1.30;94.22
39681;BME280;26327;42.550;23.120;2023-12-20T01:04:20;92953.66;;;-1.84;93.96
39681;BME280;26327;42.550;23.120;2023-12-20T01:06:45;93075.09;;;-1.10;94.08
39681;BME280;26327;42.550;23.120;2023-12-20T01:09:11;93037.22;;;-1.28;92.84
39681;BME280;26327;42.550;23.120;2023-12-20T01:11:36;93064.38;;;-1.39;92.93
39681;BME280;26327;42.550;23.120;2023-12-20T01:14:01;93022.88;;;-1.54;92.57
39681;BME280;26327;42.550;23.120;2023-12-20T01:16:27;93048.00;;;-1.24;92.82
39681;BME280;26327;42.550;23.120;2023-12-20T01:18:52;93046.41;;;-1.50;93.62
39681;BME280;26327;42.550;23.120;2023-12-20T01:21:17;93062.22;;;-1.33;92.80
39681;BME280;26327;42.550;23.120;2023-12-20T01:23:43;93054.34;;;-1.42;93.06
39681;BME280;26327;42.550;23.120;2023-12-20T01:26:08;93051.63;;;-1.39;92.58
39681;BME280;26327;42.550;23.120;2023-12-20T01:28:34;92992.56;;;-1.82;92.64
39681;BME280;26327;42.550;23.120;2023-12-20T01:30:59;93028.44;;;-1.00;90.26
39681;BME280;26327;42.550;23.120;2023-12-20T01:33:24;92978.81;;;-1.80;91.46
39681;BME280;26327;42.550;23.120;2023-12-20T01:35:50;93029.53;;;-1.77;94.30
39681;BME280;26327;42.550;23.120;2023-12-20T01:38:15;92999.38;;;-2.08;97.04
39681;BME280;26327;42.550;23.120;2023-12-20T01:40:44;93038.72;;;-1.74;97.32
39681;BME280;26327;42.550;23.120;2023-12-20T01:43:09;92989.22;;;-2.08;96.45
39681;BME280;26327;42.550;23.120;2023-12-20T01:45:36;92976.16;;;-2.04;96.43
39681;BME280;26327;42.550;23.120;2023-12-20T01:48:02;92960.41;;;-2.09;96.33
39681;BME280;26327;42.550;23.120;2023-12-20T01:50:30;93008.84;;;-1.98;97.36
39681;BME280;26327;42.550;23.120;2023-12-20T01:52:58;92962.41;;;-2.01;97.81
39681;BME280;26327;42.550;23.120;2023-12-20T01:55:25;92986.63;;;-1.70;97.16
39681;BME280;26327;42.550;23.120;2023-12-20T01:57:52;92998.13;;;-1.65;98.27
39681;BME280;26327;42.550;23.120;2023-12-20T02:00:18;92970.72;;;-1.24;95.98
39681;BME280;26327;42.550;23.120;2023-12-20T02:02:48;92961.78;;;-1.67;96.06
39681;BME280;26327;42.550;23.120;2023-12-20T02:05:15;92915.47;;;-1.97;97.65
39681;BME280;26327;42.550;23.120;2023-12-20T02:07:41;92983.84;;;-1.18;95.54
39681;BME280;26327;42.550;23.120;2023-12-20T02:10:07;92966.88;;;-1.30;95.68
39681;BME280;26327;42.550;23.120;2023-12-20T02:12:32;92985.31;;;-1.03;95.08
39681;BME280;26327;42.550;23.120;2023-12-20T02:14:58;92989.31;;;-1.11;96.05
39681;BME280;26327;42.550;23.120;2023-12-20T02:17:24;92985.41;;;-1.04;95.46
39681;BME280;26327;42.550;23.120;2023-12-20T02:19:49;92970.34;;;-1.31;95.96
39681;BME280;26327;42.550;23.120;2023-12-20T02:22:15;92925.25;;;-2.04;98.20
39681;BME280;26327;42.550;23.120;2023-12-20T02:24:41;92905.53;;;-2.13;97.13
39681;BME280;26327;42.550;23.120;2023-12-20T02:27:07;92980.03;;;-1.98;96.90
39681;BME280;26327;42.550;23.120;2023-12-20T02:29:36;92893.94;;;-2.55;96.69
39681;BME280;26327;42.550;23.120;2023-12-20T02:32:02;92953.78;;;-2.11;96.85
39681;BME280;26327;42.550;23.120;2023-12-20T02:34:28;92911.72;;;-2.04;94.42
39681;BME280;26327;42.550;23.120;2023-12-20T02:36:53;92944.56;;;-1.76;94.06
39681;BME280;26327;42.550;23.120;2023-12-20T02:39:19;92899.66;;;-1.77;93.10
39681;BME280;26327;42.550;23.120;2023-12-20T02:41:44;92941.22;;;-1.76;92.98
39681;BME280;26327;42.550;23.120;2023-12-20T02:44:10;92936.00;;;-1.75;93.89
39681;BME280;26327;42.550;23.120;2023-12-20T02:46:35;92961.59;;;-1.40;92.70
39681;BME280;26327;42.550;23.120;2023-12-20T02:49:00;92968.94;;;-1.48;91.81
39681;BME280;26327;42.550;23.120;2023-12-20T02:51:26;92951.22;;;-1.49;91.81
39681;BME280;26327;42.550;23.120;2023-12-20T02:53:51;92894.44;;;-1.75;92.14
39681;BME280;26327;42.550;23.120;2023-12-20T02:56:17;92945.63;;;-1.42;91.39
39681;BME280;26327;42.550;23.120;2023-12-20T02:58:42;92887.56;;;-1.86;91.20
39681;BME280;26327;42.550;23.120;2023-12-20T03:01:07;92900.28;;;-1.86;91.32
39681;BME280;26327;42.550;23.120;2023-12-20T03:03:33;92964.97;;;-1.39;90.61
39681;BME280;26327;42.550;23.120;2023-12-20T03:06:00;92903.13;;;-1.78;90.40
39681;BME280;26327;42.550;23.120;2023-12-20T03:08:25;92931.47;;;-1.59;90.81
39681;BME280;26327;42.550;23.120;2023-12-20T03:10:51;92961.59;;;-1.16;89.55
39681;BME280;26327;42.550;23.120;2023-12-20T03:13:16;92894.78;;;-1.93;90.97
39681;BME280;26327;42.550;23.120;2023-12-20T03:15:42;92882.56;;;-2.00;91.67
39681;BME280;26327;42.550;23.120;2023-12-20T03:18:07;92950.59;;;-1.40;92.34
39681;BME280;26327;42.550;23.120;2023-12-20T03:20:32;92901.75;;;-1.71;92.76
39681;BME280;26327;42.550;23.120;2023-12-20T03:23:01;92902.59;;;-1.46;92.86
39681;BME280;26327;42.550;23.120;2023-12-20T03:25:26;92960.38;;;-1.34;93.55
39681;BME280;26327;42.550;23.120;2023-12-20T03:27:52;92927.22;;;-1.34;93.44
39681;BME280;26327;42.550;23.120;2023-12-20T03:30:18;92944.63;;;-1.28;92.87
39681;BME280;26327;42.550;23.120;2023-12-20T03:32:43;92927.25;;;-1.47;93.25
39681;BME280;26327;42.550;23.120;2023-12-20T03:35:09;92875.03;;;-2.02;94.15
39681;BME280;26327;42.550;23.120;2023-12-20T03:37:35;92936.53;;;-1.95;96.53
39681;BME280;26327;42.550;23.120;2023-12-20T03:40:00;92876.72;;;-2.26;96.99
39681;BME280;26327;42.550;23.120;2023-12-20T03:42:26;92857.09;;;-2.24;96.02
39681;BME280;26327;42.550;23.120;2023-12-20T03:44:51;92915.16;;;-1.93;95.22
39681;BME280;26327;42.550;23.120;2023-12-20T03:47:17;92937.78;;;-2.01;96.16
39681;BME280;26327;42.550;23.120;2023-12-20T03:49:42;92855.16;;;-2.33;95.76
39681;BME280;26327;42.550;23.120;2023-12-20T03:52:07;92837.63;;;-2.38;95.18
39681;BME280;26327;42.550;23.120;2023-12-20T03:54:34;92916.59;;;-1.88;95.10
39681;BME280;26327;42.550;23.120;2023-12-20T03:57:00;92920.78;;;-1.87;94.74
39681;BME280;26327;42.550;23.120;2023-12-20T03:59:25;92877.88;;;-1.81;93.14
39681;BME280;26327;42.550;23.120;2023-12-20T04:01:50;92847.63;;;-2.22;93.46
39681;BME280;26327;42.550;23.120;2023-12-20T04:04:16;92841.03;;;-2.01;92.02
39681;BME280;26327;42.550;23.120;2023-12-20T04:06:41;92904.41;;;-1.72;92.01
39681;BME280;26327;42.550;23.120;2023-12-20T04:09:07;92906.09;;;-1.60;90.96
39681;BME280;26327;42.550;23.120;2023-12-20T04:11:34;92845.25;;;-2.12;91.49
39681;BME280;26327;42.550;23.120;2023-12-20T04:14:00;92910.88;;;-1.79;91.74
39681;BME280;26327;42.550;23.120;2023-12-20T04:16:26;92853.53;;;-1.98;91.24
39681;BME280;26327;42.550;23.120;2023-12-20T04:18:51;92890.59;;;-1.57;89.13
39681;BME280;26327;42.550;23.120;2023-12-20T04:21:17;92884.38;;;-1.90;89.39
39681;BME280;26327;42.550;23.120;2023-12-20T04:23:42;92830.00;;;-2.38;88.99
39681;BME280;26327;42.550;23.120;2023-12-20T04:26:07;92896.03;;;-2.11;90.03
39681;BME280;26327;42.550;23.120;2023-12-20T04:28:33;92898.88;;;-2.03;89.16
39681;BME280;26327;42.550;23.120;2023-12-20T04:30:58;92884.63;;;-2.05;89.94
39681;BME280;26327;42.550;23.120;2023-12-20T04:33:23;92812.84;;;-2.60;89.87
39681;BME280;26327;42.550;23.120;2023-12-20T04:35:49;92849.66;;;-2.27;89.12
39681;BME280;26327;42.550;23.120;2023-12-20T04:38:15;92851.84;;;-2.10;88.67
39681;BME280;26327;42.550;23.120;2023-12-20T04:40:40;92833.28;;;-1.99;88.32
39681;BME280;26327;42.550;23.120;2023-12-20T04:43:07;92881.13;;;-1.79;87.30
39681;BME280;26327;42.550;23.120;2023-12-20T04:45:32;92846.81;;;-1.99;87.74
39681;BME280;26327;42.550;23.120;2023-12-20T04:47:58;92776.50;;;-2.49;88.04
39681;BME280;26327;42.550;23.120;2023-12-20T04:50:23;92838.53;;;-2.13;88.30
39681;BME280;26327;42.550;23.120;2023-12-20T04:52:49;92869.75;;;-1.99;87.76
39681;BME280;26327;42.550;23.120;2023-12-20T04:55:14;92876.88;;;-2.04;88.22
39681;BME280;26327;42.550;23.120;2023-12-20T04:57:39;92866.44;;;-2.25;88.55
39681;BME280;26327;42.550;23.120;2023-12-20T05:00:05;92846.81;;;-2.35;88.49
39681;BME280;26327;42.550;23.120;2023-12-20T05:02:33;92855.22;;;-2.09;87.63
39681;BME280;26327;42.550;23.120;2023-12-20T05:04:59;92802.78;;;-2.61;87.80
39681;BME280;26327;42.550;23.120;2023-12-20T05:07:24;92865.75;;;-1.90;87.82
39681;BME280;26327;42.550;23.120;2023-12-20T05:09:49;92798.38;;;-2.34;87.07
39681;BME280;26327;42.550;23.120;2023-12-20T05:12:15;92820.75;;;-2.26;87.26
39681;BME280;26327;42.550;23.120;2023-12-20T05:14:40;92811.16;;;-2.72;89.01
39681;BME280;26327;42.550;23.120;2023-12-20T05:17:05;92867.38;;;-2.51;90.98
39681;BME280;26327;42.550;23.120;2023-12-20T05:19:31;92860.25;;;-2.59;91.56
39681;BME280;26327;42.550;23.120;2023-12-20T05:22:00;92862.91;;;-2.35;90.80
39681;BME280;26327;42.550;23.120;2023-12-20T05:24:25;92846.75;;;-2.10;90.35
39681;BME280;26327;42.550;23.120;2023-12-20T05:26:51;92814.41;;;-2.20;90.00
39681;BME280;26327;42.550;23.120;2023-12-20T05:29:16;92844.31;;;-1.75;88.75
39681;BME280;26327;42.550;23.120;2023-12-20T05:31:42;92784.09;;;-2.24;89.01
39681;BME280;26327;42.550;23.120;2023-12-20T05:34:07;92838.91;;;-2.07;89.90
39681;BME280;26327;42.550;23.120;2023-12-20T05:36:33;92847.72;;;-1.87;89.31
39681;BME280;26327;42.550;23.120;2023-12-20T05:38:58;92845.06;;;-2.22;89.74
39681;BME280;26327;42.550;23.120;2023-12-20T05:41:24;92775.84;;;-2.64;90.79
39681;BME280;26327;42.550;23.120;2023-12-20T05:43:49;92831.25;;;-2.31;91.77
39681;BME280;26327;42.550;23.120;2023-12-20T05:46:14;92834.75;;;-2.08;91.01
39681;BME280;26327;42.550;23.120;2023-12-20T05:48:40;92818.97;;;-2.13;90.55
39681;BME280;26327;42.550;23.120;2023-12-20T05:51:05;92761.47;;;-2.52;91.24
39681;BME280;26327;42.550;23.120;2023-12-20T05:53:30;92821.84;;;-2.17;91.05
39681;BME280;26327;42.550;23.120;2023-12-20T05:55:56;92828.00;;;-2.33;90.87
39681;BME280;26327;42.550;23.120;2023-12-20T05:58:21;92784.50;;;-2.66;91.64
39681;BME280;26327;42.550;23.120;2023-12-20T06:00:46;92824.75;;;-2.35;91.55
39681;BME280;26327;42.550;23.120;2023-12-20T06:03:12;92818.91;;;-2.24;91.27
39681;BME280;26327;42.550;23.120;2023-12-20T06:05:38;92790.13;;;-2.37;90.87
39681;BME280;26327;42.550;23.120;2023-12-20T06:08:03;92789.81;;;-2.33;89.99
39681;BME280;26327;42.550;23.120;2023-12-20T06:10:29;92725.56;;;-2.60;89.55
39681;BME280;26327;42.550;23.120;2023-12-20T06:12:54;92809.50;;;-2.11;88.88
39681;BME280;26327;42.550;23.120;2023-12-20T06:15:21;92713.84;;;-2.50;88.90
39681;BME280;26327;42.550;23.120;2023-12-20T06:17:46;92747.13;;;-2.53;88.84
39681;BME280;26327;42.550;23.120;2023-12-20T06:20:15;92808.25;;;-2.42;89.72
39681;BME280;26327;42.550;23.120;2023-12-20T06:22:40;92778.25;;;-2.49;90.02
39681;BME280;26327;42.550;23.120;2023-12-20T06:25:06;92815.16;;;-2.31;89.46
39681;BME280;26327;42.550;23.120;2023-12-20T06:27:32;92790.75;;;-2.46;89.66
39681;BME280;26327;42.550;23.120;2023-12-20T06:29:57;92780.69;;;-2.48;89.64
39681;BME280;26327;42.550;23.120;2023-12-20T06:32:24;92814.47;;;-2.59;91.03
39681;BME280;26327;42.550;23.120;2023-12-20T06:34:49;92818.88;;;-2.61;91.27
39681;BME280;26327;42.550;23.120;2023-12-20T06:37:15;92815.16;;;-2.44;91.58
39681;BME280;26327;42.550;23.120;2023-12-20T06:39:40;92759.41;;;-2.83;91.60
39681;BME280;26327;42.550;23.120;2023-12-20T06:42:06;92764.16;;;-2.79;91.74
39681;BME280;26327;42.550;23.120;2023-12-20T06:44:31;92805.41;;;-2.50;91.46
39681;BME280;26327;42.550;23.120;2023-12-20T06:46:57;92759.44;;;-2.60;91.81
39681;BME280;26327;42.550;23.120;2023-12-20T06:49:23;92755.69;;;-2.67;92.38
39681;BME280;26327;42.550;23.120;2023-12-20T06:51:48;92766.63;;;-2.41;92.18
39681;BME280;26327;42.550;23.120;2023-12-20T06:54:13;92807.38;;;-1.80;90.39
39681;BME280;26327;42.550;23.120;2023-12-20T06:56:39;92803.28;;;-2.07;91.01
39681;BME280;26327;42.550;23.120;2023-12-20T06:59:04;92742.25;;;-2.19;91.04
39681;BME280;26327;42.550;23.120;2023-12-20T07:01:30;92752.59;;;-2.10;91.63
39681;BME280;26327;42.550;23.120;2023-12-20T07:03:55;92794.97;;;-1.85;91.56
39681;BME280;26327;42.550;23.120;2023-12-20T07:06:20;92767.09;;;-1.75;91.46
39681;BME280;26327;42.550;23.120;2023-12-20T07:08:46;92747.81;;;-1.91;91.86
39681;BME280;26327;42.550;23.120;2023-12-20T07:11:11;92789.28;;;-1.53;91.47
39681;BME280;26327;42.550;23.120;2023-12-20T07:13:37;92796.25;;;-1.44;91.93
39681;BME280;26327;42.550;23.120;2023-12-20T07:16:03;92774.94;;;-1.54;91.64
39681;BME280;26327;42.550;23.120;2023-12-20T07:18:28;92781.97;;;-1.23;90.56
39681;BME280;26327;42.550;23.120;2023-12-20T07:20:54;92734.19;;;-1.43;90.32
39681;BME280;26327;42.550;23.120;2023-12-20T07:23:20;92716.50;;;-1.34;89.91
39681;BME280;26327;42.550;23.120;2023-12-20T07:25:47;92716.41;;;-1.21;89.82
39681;BME280;26327;42.550;23.120;2023-12-20T07:28:12;92732.31;;;-0.84;89.42
39681;BME280;26327;42.550;23.120;2023-12-20T07:30:38;92765.13;;;-0.57;89.41
39681;BME280;26327;42.550;23.120;2023-12-20T07:33:03;92760.03;;;-0.46;89.28
39681;BME280;26327;42.550;23.120;2023-12-20T07:35:29;92699.03;;;-0.71;88.74
39681;BME280;26327;42.550;23.120;2023-12-20T07:37:54;92758.53;;;-0.37;89.36
39681;BME280;26327;42.550;23.120;2023-12-20T07:40:19;92747.91;;;-0.10;89.13
39681;BME280;26327;42.550;23.120;2023-12-20T07:42:45;92754.13;;;0.08;88.91
39681;BME280;26327;42.550;23.120;2023-12-20T07:45:10;92755.28;;;0.15;88.65
39681;BME280;26327;42.550;23.120;2023-12-20T07:47:37;92723.06;;;0.24;88.69
39681;BME280;26327;42.550;23.120;2023-12-20T07:50:02;92695.78;;;0.24;88.03
39681;BME280;26327;42.550;23.120;2023-12-20T07:52:29;92721.31;;;0.56;88.21
39681;BME280;26327;42.550;23.120;2023-12-20T07:54:54;92748.38;;;1.01;88.02
39681;BME280;26327;42.550;23.120;2023-12-20T07:57:20;92751.75;;;0.59;89.37
39681;BME280;26327;42.550;23.120;2023-12-20T07:59:45;92714.69;;;0.54;89.64
39681;BME280;26327;42.550;23.120;2023-12-20T08:02:10;92743.69;;;0.85;89.97
39681;BME280;26327;42.550;23.120;2023-12-20T08:04:36;92684.97;;;0.53;91.28
39681;BME280;26327;42.550;23.120;2023-12-20T08:07:01;92742.38;;;0.70;92.51
39681;BME280;26327;42.550;23.120;2023-12-20T08:09:27;92721.44;;;0.97;90.98
39681;BME280;26327;42.550;23.120;2023-12-20T08:11:52;92709.50;;;0.86;92.65
39681;BME280;26327;42.550;23.120;2023-12-20T08:14:17;92740.19;;;0.86;93.45
39681;BME280;26327;42.550;23.120;2023-12-20T08:16:43;92735.88;;;1.07;92.76
39681;BME280;26327;42.550;23.120;2023-12-20T08:19:08;92722.81;;;1.01;92.43
39681;BME280;26327;42.550;23.120;2023-12-20T08:21:34;92675.69;;;0.82;92.41
39681;BME280;26327;42.550;23.120;2023-12-20T08:23:59;92721.31;;;1.29;91.50
39681;BME280;26327;42.550;23.120;2023-12-20T08:26:26;92725.91;;;1.35;92.08
39681;BME280;26327;42.550;23.120;2023-12-20T08:28:51;92707.28;;;1.63;90.44
39681;BME280;26327;42.550;23.120;2023-12-20T08:31:18;92727.94;;;1.71;91.33
39681;BME280;26327;42.550;23.120;2023-12-20T08:33:45;92697.31;;;1.70;91.29
39681;BME280;26327;42.550;23.120;2023-12-20T08:36:11;92622.78;;;1.13;90.94
39681;BME280;26327;42.550;23.120;2023-12-20T08:38:36;92646.38;;;1.17;92.47
39681;BME280;26327;42.550;23.120;2023-12-20T08:41:02;92697.34;;;1.39;92.61
39681;BME280;26327;42.550;23.120;2023-12-20T08:43:30;92706.44;;;1.43;93.45
39681;BME280;26327;42.550;23.120;2023-12-20T08:45:55;92701.53;;;1.40;92.94
39681;BME280;26327;42.550;23.120;2023-12-20T08:48:21;92700.56;;;1.72;92.87
39681;BME280;26327;42.550;23.120;2023-12-20T08:50:46;92633.47;;;1.28;92.93
39681;BME280;26327;42.550;23.120;2023-12-20T08:53:14;92635.97;;;1.49;91.82
39681;BME280;26327;42.550;23.120;2023-12-20T08:55:40;92671.19;;;1.85;92.19
39681;BME280;26327;42.550;23.120;2023-12-20T08:58:06;92627.47;;;1.48;93.02
39681;BME280;26327;42.550;23.120;2023-12-20T09:00:33;92668.84;;;1.53;94.29
39681;BME280;26327;42.550;23.120;2023-12-20T09:02:59;92674.38;;;1.58;95.03
39681;BME280;26327;42.550;23.120;2023-12-20T09:05:24;92562.56;;;1.00;95.27
39681;BME280;26327;42.550;23.120;2023-12-20T09:07:50;92669.44;;;1.76;95.72
39681;BME280;26327;42.550;23.120;2023-12-20T09:10:15;92605.00;;;1.62;94.80
39681;BME280;26327;42.550;23.120;2023-12-20T09:12:41;92621.31;;;1.80;94.26
39681;BME280;26327;42.550;23.120;2023-12-20T09:15:07;92648.03;;;2.06;93.83
39681;BME280;26327;42.550;23.120;2023-12-20T09:17:33;92590.84;;;1.96;94.06
39681;BME280;26327;42.550;23.120;2023-12-20T09:19:58;92633.84;;;2.50;92.24
39681;BME280;26327;42.550;23.120;2023-12-20T09:22:25;92643.28;;;2.50;93.28
39681;BME280;26327;42.550;23.120;2023-12-20T09:24:51;92637.88;;;2.63;93.41
39681;BME280;26327;42.550;23.120;2023-12-20T09:27:16;92602.09;;;2.61;92.79
39681;BME280;26327;42.550;23.120;2023-12-20T09:29:41;92570.56;;;2.41;92.94
39681;BME280;26327;42.550;23.120;2023-12-20T09:32:07;92592.22;;;2.66;93.23
39681;BME280;26327;42.550;23.120;2023-12-20T09:34:33;92533.84;;;2.88;90.49
39681;BME280;26327;42.550;23.120;2023-12-20T09:36:58;92539.94;;;3.32;88.50
39681;BME280;26327;42.550;23.120;2023-12-20T09:39:24;92587.78;;;3.96;89.81
39681;BME280;26327;42.550;23.120;2023-12-20T09:44:20;92574.84;;;4.49;89.61
39681;BME280;26327;42.550;23.120;2023-12-20T09:46:49;92551.84;;;4.48;89.97
39681;BME280;26327;42.550;23.120;2023-12-20T09:49:17;92565.22;;;4.51;89.91
39681;BME280;26327;42.550;23.120;2023-12-20T09:51:43;92563.69;;;4.66;90.96
39681;BME280;26327;42.550;23.120;2023-12-20T09:54:13;92570.88;;;4.81;92.12
39681;BME280;26327;42.550;23.120;2023-12-20T09:56:39;92498.03;;;4.54;93.81
39681;BME280;26327;42.550;23.120;2023-12-20T09:59:04;92490.03;;;4.65;92.90
39681;BME280;26327;42.550;23.120;2023-12-20T10:01:30;92489.88;;;5.01;92.00
39681;BME280;26327;42.550;23.120;2023-12-20T10:03:57;92500.59;;;5.30;92.80
39681;BME280;26327;42.550;23.120;2023-12-20T10:06:24;92526.44;;;5.71;91.16
39681;BME280;26327;42.550;23.120;2023-12-20T10:08:49;92515.03;;;6.14;91.72
39681;BME280;26327;42.550;23.120;2023-12-20T10:11:15;92513.75;;;6.43;90.98
39681;BME280;26327;42.550;23.120;2023-12-20T10:13:41;92504.84;;;6.53;91.11
39681;BME280;26327;42.550;23.120;2023-12-20T10:16:07;92472.09;;;6.54;91.69
39681;BME280;26327;42.550;23.120;2023-12-20T10:18:35;92451.59;;;6.69;89.71
39681;BME280;26327;42.550;23.120;2023-12-20T10:21:01;92491.91;;;7.09;88.87
39681;BME280;26327;42.550;23.120;2023-12-20T10:23:26;92495.47;;;7.47;87.27
39681;BME280;26327;42.550;23.120;2023-12-20T10:25:59;92416.19;;;7.16;86.27
39681;BME280;26327;42.550;23.120;2023-12-20T10:28:24;92401.09;;;7.28;83.95
39681;BME280;26327;42.550;23.120;2023-12-20T10:30:53;92485.56;;;8.04;83.59
39681;BME280;26327;42.550;23.120;2023-12-20T10:33:29;92483.00;;;8.42;72.90
39681;BME280;26327;42.550;23.120;2023-12-20T10:35:57;92388.63;;;8.74;63.37
39681;BME280;26327;42.550;23.120;2023-12-20T10:38:22;92475.56;;;9.78;61.26
39681;BME280;26327;42.550;23.120;2023-12-20T10:40:48;92453.88;;;10.50;54.99
39681;BME280;26327;42.550;23.120;2023-12-20T10:43:15;92422.41;;;10.66;53.77
39681;BME280;26327;42.550;23.120;2023-12-20T10:45:42;92457.75;;;11.36;52.16
39681;BME280;26327;42.550;23.120;2023-12-20T10:48:10;92450.97;;;11.42;51.50
39681;BME280;26327;42.550;23.120;2023-12-20T10:50:37;92441.38;;;11.42;51.94
39681;BME280;26327;42.550;23.120;2023-12-20T10:53:06;92386.41;;;11.04;51.66
39681;BME280;26327;42.550;23.120;2023-12-20T10:55:32;92375.38;;;11.56;49.37
39681;BME280;26327;42.550;23.120;2023-12-20T10:58:04;92442.22;;;11.56;49.45
39681;BME280;26327;42.550;23.120;2023-12-20T11:00:32;92423.44;;;11.74;50.26
39681;BME280;26327;42.550;23.120;2023-12-20T11:03:00;92422.91;;;12.05;49.30
39681;BME280;26327;42.550;23.120;2023-12-20T11:05:40;92374.38;;;11.64;48.94
39681;BME280;26327;42.550;23.120;2023-12-20T11:08:20;92401.78;;;11.66;49.71
39681;BME280;26327;42.550;23.120;2023-12-20T11:14:00;92396.56;;;11.47;50.79
39681;BME280;26327;42.550;23.120;2023-12-20T11:16:27;92382.38;;;11.76;50.53
39681;BME280;26327;42.550;23.120;2023-12-20T11:18:52;92381.03;;;12.19;49.50
39681;BME280;26327;42.550;23.120;2023-12-20T11:21:18;92385.75;;;12.88;47.21
39681;BME280;26327;42.550;23.120;2023-12-20T11:23:43;92377.03;;;12.43;47.37
39681;BME280;26327;42.550;23.120;2023-12-20T11:26:08;92348.78;;;12.34;46.53
39681;BME280;26327;42.550;23.120;2023-12-20T11:28:34;92356.75;;;12.58;46.70
39681;BME280;26327;42.550;23.120;2023-12-20T11:31:01;92295.31;;;12.05;46.78
39681;BME280;26327;42.550;23.120;2023-12-20T11:33:30;92296.41;;;12.61;44.95
39681;BME280;26327;42.550;23.120;2023-12-20T11:35:57;92351.44;;;12.98;45.45
39681;BME280;26327;42.550;23.120;2023-12-20T11:38:23;92341.72;;;13.12;44.00
39681;BME280;26327;42.550;23.120;2023-12-20T11:40:49;92313.19;;;11.88;45.63
39681;BME280;26327;42.550;23.120;2023-12-20T11:43:51;92347.22;;;12.00;48.06
39681;BME280;26327;42.550;23.120;2023-12-20T11:46:17;92328.75;;;11.75;47.79
39681;BME280;26327;42.550;23.120;2023-12-20T11:48:44;92275.09;;;11.54;47.94
39681;BME280;26327;42.550;23.120;2023-12-20T11:51:13;92334.41;;;11.98;47.77
39681;BME280;26327;42.550;23.120;2023-12-20T11:53:40;92321.53;;;12.23;47.29
39681;BME280;26327;42.550;23.120;2023-12-20T11:56:06;92316.88;;;13.09;44.67
39681;BME280;26327;42.550;23.120;2023-12-20T11:58:33;92325.38;;;13.74;42.75
39681;BME280;26327;42.550;23.120;2023-12-20T12:00:58;92302.41;;;13.83;41.38
39681;BME280;26327;42.550;23.120;2023-12-20T12:03:24;92287.16;;;14.05;40.73
39681;BME280;26327;42.550;23.120;2023-12-20T12:05:50;92238.94;;;13.82;40.75
39681;BME280;26327;42.550;23.120;2023-12-20T12:08:16;92270.97;;;13.96;40.49
39681;BME280;26327;42.550;23.120;2023-12-20T12:10:43;92286.63;;;14.39;40.78
39681;BME280;26327;42.550;23.120;2023-12-20T12:13:09;92266.81;;;14.32;40.25
39681;BME280;26327;42.550;23.120;2023-12-20T12:15:35;92260.91;;;14.18;40.16
39681;BME280;26327;42.550;23.120;2023-12-20T12:18:01;92273.06;;;14.06;40.73
39681;BME280;26327;42.550;23.120;2023-12-20T12:20:27;92233.53;;;14.02;40.64
39681;BME280;26327;42.550;23.120;2023-12-20T12:23:02;92281.06;;;14.54;40.06
39681;BME280;26327;42.550;23.120;2023-12-20T12:25:29;92270.81;;;14.09;40.71
39681;BME280;26327;42.550;23.120;2023-12-20T12:27:56;92233.16;;;13.99;40.89
39681;BME280;26327;42.550;23.120;2023-12-20T12:30:21;92263.41;;;12.93;42.99
39681;BME280;26327;42.550;23.120;2023-12-20T12:32:47;92225.44;;;12.02;44.87
39681;BME280;26327;42.550;23.120;2023-12-20T12:35:14;92276.69;;;12.14;45.29
39681;BME280;26327;42.550;23.120;2023-12-20T12:37:40;92180.44;;;11.35;45.96
39681;BME280;26327;42.550;23.120;2023-12-20T12:40:09;92276.31;;;11.97;46.27
39681;BME280;26327;42.550;23.120;2023-12-20T12:42:35;92224.28;;;11.84;46.28
39681;BME280;26327;42.550;23.120;2023-12-20T12:45:00;92247.63;;;12.31;45.97
39681;BME280;26327;42.550;23.120;2023-12-20T12:47:26;92276.22;;;12.44;44.89
39681;BME280;26327;42.550;23.120;2023-12-20T12:49:51;92257.03;;;12.32;45.35
39681;BME280;26327;42.550;23.120;2023-12-20T12:52:18;92267.69;;;12.68;44.73